sensor_id;sensor_type;location;lat;lon;timestamp;P1;durP1;ratioP1;P2;durP2;ratioP2
75550;SDS011;65071;53.082;18.218;2023-01-20T00:01:24;20.60;;;8.80;;
75550;SDS011;65071;53.082;18.218;2023-01-20T00:03:52;17.30;;;7.30;;
75550;SDS011;65071;53.082;18.218;2023-01-20T00:06:20;19.40;;;8.40;;
75550;SDS011;65071;53.082;18.218;2023-01-20T00:08:50;27.10;;;10.60;;
75550;SDS011;65071;53.082;18.218;2023-01-20T00:11:18;24.60;;;9.60;;
75550;SDS011;65071;53.082;18.218;2023-01-20T00:13:45;19.30;;;8.70;;
75550;SDS011;65071;53.082;18.218;2023-01-20T00:16:12;23.50;;;9.40;;
75550;SDS011;65071;53.082;18.218;2023-01-20T00:18:39;22.00;;;9.40;;
75550;SDS011;65071;53.082;18.218;2023-01-20T00:21:07;27.10;;;10.90;;
75550;SDS011;65071;53.082;18.218;2023-01-20T00:23:36;25.00;;;10.60;;
75550;SDS011;65071;53.082;18.218;2023-01-20T00:26:10;28.70;;;11.80;;
75550;SDS011;65071;53.082;18.218;2023-01-20T00:28:38;28.30;;;11.30;;
75550;SDS011;65071;53.082;18.218;2023-01-20T00:31:15;30.50;;;11.50;;
75550;SDS011;65071;53.082;18.218;2023-01-20T00:33:43;23.80;;;10.90;;
75550;SDS011;65071;53.082;18.218;2023-01-20T00:36:10;26.70;;;10.80;;
75550;SDS011;65071;53.082;18.218;2023-01-20T00:38:38;32.20;;;12.10;;
75550;SDS011;65071;53.082;18.218;2023-01-20T00:41:05;26.30;;;10.30;;
75550;SDS011;65071;53.082;18.218;2023-01-20T00:43:32;27.30;;;11.00;;
75550;SDS011;65071;53.082;18.218;2023-01-20T00:46:00;20.90;;;8.50;;
75550;SDS011;65071;53.082;18.218;2023-01-20T00:48:27;24.60;;;9.70;;
75550;SDS011;65071;53.082;18.218;2023-01-20T00:50:54;19.60;;;7.80;;
75550;SDS011;65071;53.082;18.218;2023-01-20T00:53:20;23.40;;;9.30;;
75550;SDS011;65071;53.082;18.218;2023-01-20T00:55:47;20.90;;;8.80;;
75550;SDS011;65071;53.082;18.218;2023-01-20T00:58:14;16.90;;;8.00;;
75550;SDS011;65071;53.082;18.218;2023-01-20T01:00:41;18.70;;;7.30;;
75550;SDS011;65071;53.082;18.218;2023-01-20T01:03:08;20.60;;;8.10;;
75550;SDS011;65071;53.082;18.218;2023-01-20T01:05:37;18.10;;;6.70;;
75550;SDS011;65071;53.082;18.218;2023-01-20T01:08:04;22.00;;;8.10;;
75550;SDS011;65071;53.082;18.218;2023-01-20T01:10:31;21.10;;;9.30;;
75550;SDS011;65071;53.082;18.218;2023-01-20T01:12:58;20.00;;;8.60;;
75550;SDS011;65071;53.082;18.218;2023-01-20T01:15:26;18.30;;;7.90;;
75550;SDS011;65071;53.082;18.218;2023-01-20T01:17:54;20.00;;;7.10;;
75550;SDS011;65071;53.082;18.218;2023-01-20T01:20:21;19.00;;;8.40;;
75550;SDS011;65071;53.082;18.218;2023-01-20T01:22:48;15.80;;;6.90;;
75550;SDS011;65071;53.082;18.218;2023-01-20T01:25:15;19.00;;;8.20;;
75550;SDS011;65071;53.082;18.218;2023-01-20T01:27:42;19.20;;;7.60;;
75550;SDS011;65071;53.082;18.218;2023-01-20T01:30:09;16.90;;;7.20;;
75550;SDS011;65071;53.082;18.218;2023-01-20T01:32:36;23.80;;;8.90;;
75550;SDS011;65071;53.082;18.218;2023-01-20T01:35:03;16.80;;;8.10;;
75550;SDS011;65071;53.082;18.218;2023-01-20T01:37:30;14.50;;;6.50;;
75550;SDS011;65071;53.082;18.218;2023-01-20T01:39:56;18.70;;;8.10;;
75550;SDS011;65071;53.082;18.218;2023-01-20T01:42:24;16.60;;;7.30;;
75550;SDS011;65071;53.082;18.218;2023-01-20T01:47:41;23.30;;;9.80;;
75550;SDS011;65071;53.082;18.218;2023-01-20T01:50:31;31.30;;;11.70;;
75550;SDS011;65071;53.082;18.218;2023-01-20T01:53:02;28.50;;;11.30;;
75550;SDS011;65071;53.082;18.218;2023-01-20T01:55:29;27.20;;;10.80;;
75550;SDS011;65071;53.082;18.218;2023-01-20T01:58:00;28.90;;;11.80;;
75550;SDS011;65071;53.082;18.218;2023-01-20T02:00:30;31.30;;;12.80;;
75550;SDS011;65071;53.082;18.218;2023-01-20T02:02:56;28.50;;;11.30;;
75550;SDS011;65071;53.082;18.218;2023-01-20T02:05:24;25.70;;;9.70;;
75550;SDS011;65071;53.082;18.218;2023-01-20T02:07:53;26.70;;;10.40;;
75550;SDS011;65071;53.082;18.218;2023-01-20T02:10:22;25.00;;;10.10;;
75550;SDS011;65071;53.082;18.218;2023-01-20T02:12:49;20.60;;;9.30;;
75550;SDS011;65071;53.082;18.218;2023-01-20T02:15:17;23.30;;;9.30;;
75550;SDS011;65071;53.082;18.218;2023-01-20T02:20:37;20.80;;;8.80;;
75550;SDS011;65071;53.082;18.218;2023-01-20T02:23:23;20.40;;;8.30;;
75550;SDS011;65071;53.082;18.218;2023-01-20T02:28:52;24.90;;;9.60;;
75550;SDS011;65071;53.082;18.218;2023-01-20T02:34:12;23.40;;;9.70;;
75550;SDS011;65071;53.082;18.218;2023-01-20T02:37:29;25.50;;;11.20;;
75550;SDS011;65071;53.082;18.218;2023-01-20T02:39:43;24.80;;;10.40;;
75550;SDS011;65071;53.082;18.218;2023-01-20T02:42:22;23.40;;;9.20;;
75550;SDS011;65071;53.082;18.218;2023-01-20T02:50:03;25.80;;;10.50;;
75550;SDS011;65071;53.082;18.218;2023-01-20T02:52:36;18.00;;;7.00;;
75550;SDS011;65071;53.082;18.218;2023-01-20T02:55:08;19.80;;;8.00;;
75550;SDS011;65071;53.082;18.218;2023-01-20T02:57:40;24.60;;;10.60;;
75550;SDS011;65071;53.082;18.218;2023-01-20T03:00:13;20.20;;;10.20;;
75550;SDS011;65071;53.082;18.218;2023-01-20T03:02:46;18.40;;;7.70;;
75550;SDS011;65071;53.082;18.218;2023-01-20T03:05:22;22.70;;;8.80;;
75550;SDS011;65071;53.082;18.218;2023-01-20T03:07:54;18.50;;;7.70;;
75550;SDS011;65071;53.082;18.218;2023-01-20T03:10:23;20.50;;;8.50;;
75550;SDS011;65071;53.082;18.218;2023-01-20T03:15:23;18.30;;;8.30;;
75550;SDS011;65071;53.082;18.218;2023-01-20T03:17:58;18.90;;;7.50;;
75550;SDS011;65071;53.082;18.218;2023-01-20T03:20:25;18.50;;;8.40;;
75550;SDS011;65071;53.082;18.218;2023-01-20T03:22:51;23.20;;;10.20;;
75550;SDS011;65071;53.082;18.218;2023-01-20T03:25:18;20.30;;;9.50;;
75550;SDS011;65071;53.082;18.218;2023-01-20T03:27:45;20.00;;;9.50;;
75550;SDS011;65071;53.082;18.218;2023-01-20T03:30:13;24.10;;;10.30;;
75550;SDS011;65071;53.082;18.218;2023-01-20T03:32:41;18.00;;;7.80;;
75550;SDS011;65071;53.082;18.218;2023-01-20T03:37:38;13.40;;;5.90;;
75550;SDS011;65071;53.082;18.218;2023-01-20T03:40:05;17.40;;;7.00;;
75550;SDS011;65071;53.082;18.218;2023-01-20T03:42:34;16.80;;;7.30;;
75550;SDS011;65071;53.082;18.218;2023-01-20T03:45:10;19.20;;;8.20;;
75550;SDS011;65071;53.082;18.218;2023-01-20T03:47:49;23.70;;;10.20;;
75550;SDS011;65071;53.082;18.218;2023-01-20T03:52:54;18.70;;;9.00;;
75550;SDS011;65071;53.082;18.218;2023-01-20T03:55:37;20.80;;;8.60;;
75550;SDS011;65071;53.082;18.218;2023-01-20T03:58:15;27.70;;;12.40;;
75550;SDS011;65071;53.082;18.218;2023-01-20T04:00:47;25.00;;;10.60;;
75550;SDS011;65071;53.082;18.218;2023-01-20T04:03:17;29.00;;;11.90;;
75550;SDS011;65071;53.082;18.218;2023-01-20T04:05:47;27.60;;;11.50;;
75550;SDS011;65071;53.082;18.218;2023-01-20T04:08:16;25.60;;;9.70;;
75550;SDS011;65071;53.082;18.218;2023-01-20T04:10:46;28.00;;;11.40;;
75550;SDS011;65071;53.082;18.218;2023-01-20T04:13:14;24.80;;;10.00;;
75550;SDS011;65071;53.082;18.218;2023-01-20T04:15:41;18.40;;;8.20;;
75550;SDS011;65071;53.082;18.218;2023-01-20T04:18:20;19.10;;;8.70;;
75550;SDS011;65071;53.082;18.218;2023-01-20T04:20:49;25.00;;;10.00;;
75550;SDS011;65071;53.082;18.218;2023-01-20T04:23:53;25.60;;;11.10;;
75550;SDS011;65071;53.082;18.218;2023-01-20T04:26:15;23.10;;;9.60;;
75550;SDS011;65071;53.082;18.218;2023-01-20T04:28:42;22.90;;;9.90;;
75550;SDS011;65071;53.082;18.218;2023-01-20T04:31:09;25.10;;;11.20;;
75550;SDS011;65071;53.082;18.218;2023-01-20T04:33:37;24.60;;;10.30;;
75550;SDS011;65071;53.082;18.218;2023-01-20T04:36:04;19.80;;;8.80;;
75550;SDS011;65071;53.082;18.218;2023-01-20T04:38:30;20.60;;;9.00;;
75550;SDS011;65071;53.082;18.218;2023-01-20T04:40:57;23.40;;;9.60;;
75550;SDS011;65071;53.082;18.218;2023-01-20T04:43:24;22.80;;;9.00;;
75550;SDS011;65071;53.082;18.218;2023-01-20T04:45:50;24.20;;;9.90;;
75550;SDS011;65071;53.082;18.218;2023-01-20T04:48:17;21.10;;;9.90;;
75550;SDS011;65071;53.082;18.218;2023-01-20T04:50:44;21.90;;;8.50;;
75550;SDS011;65071;53.082;18.218;2023-01-20T04:53:12;25.20;;;11.20;;
75550;SDS011;65071;53.082;18.218;2023-01-20T04:55:42;13.50;;;5.20;;
75550;SDS011;65071;53.082;18.218;2023-01-20T04:58:08;16.60;;;7.00;;
75550;SDS011;65071;53.082;18.218;2023-01-20T05:00:35;29.70;;;12.40;;
75550;SDS011;65071;53.082;18.218;2023-01-20T05:03:02;25.50;;;10.10;;
75550;SDS011;65071;53.082;18.218;2023-01-20T05:05:31;20.80;;;9.60;;
75550;SDS011;65071;53.082;18.218;2023-01-20T05:07:58;19.30;;;8.70;;
75550;SDS011;65071;53.082;18.218;2023-01-20T05:10:24;24.10;;;10.70;;
75550;SDS011;65071;53.082;18.218;2023-01-20T05:12:51;20.40;;;9.00;;
75550;SDS011;65071;53.082;18.218;2023-01-20T05:15:18;25.30;;;10.20;;
75550;SDS011;65071;53.082;18.218;2023-01-20T05:17:44;28.20;;;11.70;;
75550;SDS011;65071;53.082;18.218;2023-01-20T05:20:11;34.20;;;14.10;;
75550;SDS011;65071;53.082;18.218;2023-01-20T05:22:39;34.00;;;14.00;;
75550;SDS011;65071;53.082;18.218;2023-01-20T05:25:07;27.40;;;11.70;;
75550;SDS011;65071;53.082;18.218;2023-01-20T05:27:34;29.70;;;12.70;;
75550;SDS011;65071;53.082;18.218;2023-01-20T05:30:02;29.10;;;12.90;;
75550;SDS011;65071;53.082;18.218;2023-01-20T05:32:30;29.10;;;12.60;;
75550;SDS011;65071;53.082;18.218;2023-01-20T05:34:56;26.70;;;11.30;;
75550;SDS011;65071;53.082;18.218;2023-01-20T05:37:23;23.60;;;10.60;;
75550;SDS011;65071;53.082;18.218;2023-01-20T05:39:50;21.30;;;8.20;;
75550;SDS011;65071;53.082;18.218;2023-01-20T05:42:16;24.60;;;10.20;;
75550;SDS011;65071;53.082;18.218;2023-01-20T05:44:43;22.10;;;8.60;;
75550;SDS011;65071;53.082;18.218;2023-01-20T05:47:09;23.40;;;9.60;;
75550;SDS011;65071;53.082;18.218;2023-01-20T05:49:36;27.50;;;11.40;;
75550;SDS011;65071;53.082;18.218;2023-01-20T05:52:03;28.90;;;10.90;;
75550;SDS011;65071;53.082;18.218;2023-01-20T05:54:29;22.70;;;9.00;;
75550;SDS011;65071;53.082;18.218;2023-01-20T05:56:56;25.90;;;11.00;;
75550;SDS011;65071;53.082;18.218;2023-01-20T05:59:24;20.30;;;9.90;;
75550;SDS011;65071;53.082;18.218;2023-01-20T06:01:50;16.30;;;7.30;;
75550;SDS011;65071;53.082;18.218;2023-01-20T06:04:17;24.20;;;9.40;;
75550;SDS011;65071;53.082;18.218;2023-01-20T06:06:44;15.90;;;6.70;;
75550;SDS011;65071;53.082;18.218;2023-01-20T06:09:10;24.80;;;10.20;;
75550;SDS011;65071;53.082;18.218;2023-01-20T06:11:37;27.20;;;11.30;;
75550;SDS011;65071;53.082;18.218;2023-01-20T06:14:04;21.50;;;8.00;;
75550;SDS011;65071;53.082;18.218;2023-01-20T06:16:30;28.60;;;12.60;;
75550;SDS011;65071;53.082;18.218;2023-01-20T06:18:57;25.40;;;11.50;;
75550;SDS011;65071;53.082;18.218;2023-01-20T06:21:24;27.50;;;12.90;;
75550;SDS011;65071;53.082;18.218;2023-01-20T06:23:51;23.20;;;9.30;;
75550;SDS011;65071;53.082;18.218;2023-01-20T06:26:18;29.50;;;11.50;;
75550;SDS011;65071;53.082;18.218;2023-01-20T06:28:45;27.60;;;10.50;;
75550;SDS011;65071;53.082;18.218;2023-01-20T06:31:13;26.20;;;10.20;;
75550;SDS011;65071;53.082;18.218;2023-01-20T06:33:41;25.60;;;10.60;;
75550;SDS011;65071;53.082;18.218;2023-01-20T06:36:08;20.10;;;8.80;;
75550;SDS011;65071;53.082;18.218;2023-01-20T06:38:38;25.70;;;10.20;;
75550;SDS011;65071;53.082;18.218;2023-01-20T06:41:06;26.40;;;10.90;;
75550;SDS011;65071;53.082;18.218;2023-01-20T06:43:36;26.50;;;9.60;;
75550;SDS011;65071;53.082;18.218;2023-01-20T06:46:05;29.30;;;11.00;;
75550;SDS011;65071;53.082;18.218;2023-01-20T06:48:35;23.40;;;10.10;;
75550;SDS011;65071;53.082;18.218;2023-01-20T06:51:02;29.40;;;12.10;;
75550;SDS011;65071;53.082;18.218;2023-01-20T06:53:30;32.40;;;13.80;;
75550;SDS011;65071;53.082;18.218;2023-01-20T06:55:57;24.40;;;11.00;;
75550;SDS011;65071;53.082;18.218;2023-01-20T06:58:26;23.70;;;9.70;;
75550;SDS011;65071;53.082;18.218;2023-01-20T07:00:54;19.60;;;8.10;;
75550;SDS011;65071;53.082;18.218;2023-01-20T07:03:22;23.20;;;8.70;;
75550;SDS011;65071;53.082;18.218;2023-01-20T07:05:53;23.00;;;9.60;;
75550;SDS011;65071;53.082;18.218;2023-01-20T07:08:24;26.70;;;10.80;;
75550;SDS011;65071;53.082;18.218;2023-01-20T07:10:51;21.30;;;9.70;;
75550;SDS011;65071;53.082;18.218;2023-01-20T07:13:18;23.30;;;9.80;;
75550;SDS011;65071;53.082;18.218;2023-01-20T07:15:44;24.30;;;11.30;;
75550;SDS011;65071;53.082;18.218;2023-01-20T07:18:11;27.10;;;11.80;;
75550;SDS011;65071;53.082;18.218;2023-01-20T07:20:38;23.50;;;10.40;;
75550;SDS011;65071;53.082;18.218;2023-01-20T07:23:04;24.30;;;10.80;;
75550;SDS011;65071;53.082;18.218;2023-01-20T07:25:31;26.40;;;10.80;;
75550;SDS011;65071;53.082;18.218;2023-01-20T07:27:57;21.50;;;10.30;;
75550;SDS011;65071;53.082;18.218;2023-01-20T07:30:24;21.40;;;8.70;;
75550;SDS011;65071;53.082;18.218;2023-01-20T07:32:52;21.80;;;8.60;;
75550;SDS011;65071;53.082;18.218;2023-01-20T07:35:19;22.60;;;10.20;;
75550;SDS011;65071;53.082;18.218;2023-01-20T07:37:45;22.80;;;9.70;;
75550;SDS011;65071;53.082;18.218;2023-01-20T07:40:12;21.80;;;9.10;;
75550;SDS011;65071;53.082;18.218;2023-01-20T07:42:38;23.70;;;9.80;;
75550;SDS011;65071;53.082;18.218;2023-01-20T07:45:06;24.70;;;10.70;;
75550;SDS011;65071;53.082;18.218;2023-01-20T07:47:33;25.10;;;11.30;;
75550;SDS011;65071;53.082;18.218;2023-01-20T07:50:00;27.40;;;11.90;;
75550;SDS011;65071;53.082;18.218;2023-01-20T07:52:26;29.60;;;12.00;;
75550;SDS011;65071;53.082;18.218;2023-01-20T07:54:53;26.40;;;11.50;;
75550;SDS011;65071;53.082;18.218;2023-01-20T07:57:19;25.50;;;10.80;;
75550;SDS011;65071;53.082;18.218;2023-01-20T07:59:46;28.50;;;11.70;;
75550;SDS011;65071;53.082;18.218;2023-01-20T08:02:13;27.50;;;11.80;;
75550;SDS011;65071;53.082;18.218;2023-01-20T08:04:39;24.60;;;10.20;;
75550;SDS011;65071;53.082;18.218;2023-01-20T08:07:06;27.80;;;11.20;;
75550;SDS011;65071;53.082;18.218;2023-01-20T08:09:32;28.90;;;11.80;;
75550;SDS011;65071;53.082;18.218;2023-01-20T08:11:59;24.40;;;11.10;;
75550;SDS011;65071;53.082;18.218;2023-01-20T08:14:27;23.00;;;10.00;;
75550;SDS011;65071;53.082;18.218;2023-01-20T08:16:54;25.60;;;11.30;;
75550;SDS011;65071;53.082;18.218;2023-01-20T08:19:20;26.20;;;11.20;;
75550;SDS011;65071;53.082;18.218;2023-01-20T08:21:47;24.50;;;11.00;;
75550;SDS011;65071;53.082;18.218;2023-01-20T08:24:13;27.80;;;11.90;;
75550;SDS011;65071;53.082;18.218;2023-01-20T08:26:40;24.80;;;11.30;;
75550;SDS011;65071;53.082;18.218;2023-01-20T08:29:07;28.50;;;11.90;;
75550;SDS011;65071;53.082;18.218;2023-01-20T08:31:35;25.30;;;11.20;;
75550;SDS011;65071;53.082;18.218;2023-01-20T08:34:02;25.20;;;11.50;;
75550;SDS011;65071;53.082;18.218;2023-01-20T08:36:31;21.50;;;9.80;;
75550;SDS011;65071;53.082;18.218;2023-01-20T08:39:00;18.80;;;7.80;;
75550;SDS011;65071;53.082;18.218;2023-01-20T08:41:29;21.70;;;8.20;;
75550;SDS011;65071;53.082;18.218;2023-01-20T08:43:59;25.60;;;10.90;;
75550;SDS011;65071;53.082;18.218;2023-01-20T08:46:27;26.20;;;9.80;;
75550;SDS011;65071;53.082;18.218;2023-01-20T08:48:54;28.10;;;11.60;;
75550;SDS011;65071;53.082;18.218;2023-01-20T08:51:25;27.70;;;11.10;;
75550;SDS011;65071;53.082;18.218;2023-01-20T08:53:56;27.10;;;12.30;;
75550;SDS011;65071;53.082;18.218;2023-01-20T08:56:23;28.10;;;12.10;;
75550;SDS011;65071;53.082;18.218;2023-01-20T08:58:49;25.60;;;12.00;;
75550;SDS011;65071;53.082;18.218;2023-01-20T09:01:18;26.40;;;12.40;;
75550;SDS011;65071;53.082;18.218;2023-01-20T09:03:46;30.60;;;10.70;;
75550;SDS011;65071;53.082;18.218;2023-01-20T09:06:14;27.10;;;11.10;;
75550;SDS011;65071;53.082;18.218;2023-01-20T09:08:41;30.30;;;12.80;;
75550;SDS011;65071;53.082;18.218;2023-01-20T09:11:10;30.90;;;13.00;;
75550;SDS011;65071;53.082;18.218;2023-01-20T09:13:41;20.80;;;9.20;;
75550;SDS011;65071;53.082;18.218;2023-01-20T09:16:10;22.00;;;10.10;;
75550;SDS011;65071;53.082;18.218;2023-01-20T09:18:37;21.80;;;9.60;;
75550;SDS011;65071;53.082;18.218;2023-01-20T09:21:04;21.90;;;9.70;;
75550;SDS011;65071;53.082;18.218;2023-01-20T09:23:35;20.10;;;10.50;;
75550;SDS011;65071;53.082;18.218;2023-01-20T09:26:04;19.40;;;9.10;;
75550;SDS011;65071;53.082;18.218;2023-01-20T09:28:33;21.40;;;9.70;;
75550;SDS011;65071;53.082;18.218;2023-01-20T09:31:00;21.80;;;10.30;;
75550;SDS011;65071;53.082;18.218;2023-01-20T09:33:30;22.80;;;10.60;;
75550;SDS011;65071;53.082;18.218;2023-01-20T09:35:58;21.80;;;10.10;;
75550;SDS011;65071;53.082;18.218;2023-01-20T09:38:25;26.00;;;11.40;;
75550;SDS011;65071;53.082;18.218;2023-01-20T09:41:13;24.90;;;11.40;;
75550;SDS011;65071;53.082;18.218;2023-01-20T09:44:27;25.50;;;11.20;;
75550;SDS011;65071;53.082;18.218;2023-01-20T09:52:56;25.20;;;10.60;;
75550;SDS011;65071;53.082;18.218;2023-01-20T09:58:08;26.90;;;12.60;;
75550;SDS011;65071;53.082;18.218;2023-01-20T10:00:43;23.80;;;11.10;;
75550;SDS011;65071;53.082;18.218;2023-01-20T10:03:15;21.20;;;10.80;;
75550;SDS011;65071;53.082;18.218;2023-01-20T10:05:47;26.90;;;11.50;;
75550;SDS011;65071;53.082;18.218;2023-01-20T10:11:11;24.10;;;9.60;;
75550;SDS011;65071;53.082;18.218;2023-01-20T10:19:07;27.70;;;12.30;;
75550;SDS011;65071;53.082;18.218;2023-01-20T10:24:56;27.60;;;12.60;;
75550;SDS011;65071;53.082;18.218;2023-01-20T10:27:28;25.20;;;11.80;;
75550;SDS011;65071;53.082;18.218;2023-01-20T10:29:58;27.50;;;13.70;;
75550;SDS011;65071;53.082;18.218;2023-01-20T10:32:33;23.50;;;11.70;;
75550;SDS011;65071;53.082;18.218;2023-01-20T10:35:06;28.30;;;13.70;;
75550;SDS011;65071;53.082;18.218;2023-01-20T10:37:40;22.40;;;10.40;;
75550;SDS011;65071;53.082;18.218;2023-01-20T10:42:51;20.70;;;10.50;;
75550;SDS011;65071;53.082;18.218;2023-01-20T10:45:34;22.70;;;11.00;;
75550;SDS011;65071;53.082;18.218;2023-01-20T10:51:02;23.40;;;11.00;;
75550;SDS011;65071;53.082;18.218;2023-01-20T10:53:46;18.60;;;9.40;;
75550;SDS011;65071;53.082;18.218;2023-01-20T10:59:03;21.20;;;10.40;;
75550;SDS011;65071;53.082;18.218;2023-01-20T11:01:37;20.40;;;10.10;;
75550;SDS011;65071;53.082;18.218;2023-01-20T11:04:05;17.60;;;9.00;;
75550;SDS011;65071;53.082;18.218;2023-01-20T11:06:31;22.10;;;10.70;;
75550;SDS011;65071;53.082;18.218;2023-01-20T11:09:00;18.80;;;9.40;;
75550;SDS011;65071;53.082;18.218;2023-01-20T11:11:44;24.60;;;11.80;;
75550;SDS011;65071;53.082;18.218;2023-01-20T11:14:11;24.20;;;10.80;;
75550;SDS011;65071;53.082;18.218;2023-01-20T11:16:38;20.30;;;9.90;;
75550;SDS011;65071;53.082;18.218;2023-01-20T11:19:07;19.00;;;10.10;;
75550;SDS011;65071;53.082;18.218;2023-01-20T11:21:34;16.90;;;8.00;;
75550;SDS011;65071;53.082;18.218;2023-01-20T11:24:48;19.10;;;9.20;;
75550;SDS011;65071;53.082;18.218;2023-01-20T11:27:05;15.50;;;7.10;;
75550;SDS011;65071;53.082;18.218;2023-01-20T11:29:40;17.40;;;8.40;;
75550;SDS011;65071;53.082;18.218;2023-01-20T11:34:53;19.00;;;9.30;;
75550;SDS011;65071;53.082;18.218;2023-01-20T11:37:22;16.30;;;7.30;;
75550;SDS011;65071;53.082;18.218;2023-01-20T11:39:58;16.30;;;8.10;;
75550;SDS011;65071;53.082;18.218;2023-01-20T11:42:30;14.80;;;7.60;;
75550;SDS011;65071;53.082;18.218;2023-01-20T11:45:21;16.20;;;8.00;;
75550;SDS011;65071;53.082;18.218;2023-01-20T11:47:58;18.70;;;8.70;;
75550;SDS011;65071;53.082;18.218;2023-01-20T11:53:21;18.80;;;9.40;;
75550;SDS011;65071;53.082;18.218;2023-01-20T11:55:52;17.90;;;8.20;;
75550;SDS011;65071;53.082;18.218;2023-01-20T11:58:24;17.10;;;8.10;;
75550;SDS011;65071;53.082;18.218;2023-01-20T12:01:04;15.20;;;7.50;;
75550;SDS011;65071;53.082;18.218;2023-01-20T12:03:49;19.90;;;8.90;;
75550;SDS011;65071;53.082;18.218;2023-01-20T12:06:27;20.60;;;9.00;;
75550;SDS011;65071;53.082;18.218;2023-01-20T12:09:01;16.00;;;8.10;;
75550;SDS011;65071;53.082;18.218;2023-01-20T12:11:34;18.50;;;9.10;;
75550;SDS011;65071;53.082;18.218;2023-01-20T12:22:17;19.70;;;8.80;;
75550;SDS011;65071;53.082;18.218;2023-01-20T12:24:54;16.20;;;7.40;;
75550;SDS011;65071;53.082;18.218;2023-01-20T12:27:34;12.90;;;6.40;;
75550;SDS011;65071;53.082;18.218;2023-01-20T12:30:15;15.80;;;7.50;;
75550;SDS011;65071;53.082;18.218;2023-01-20T12:32:57;16.70;;;7.60;;
75550;SDS011;65071;53.082;18.218;2023-01-20T12:35:25;13.70;;;7.30;;
75550;SDS011;65071;53.082;18.218;2023-01-20T12:37:56;15.60;;;8.10;;
75550;SDS011;65071;53.082;18.218;2023-01-20T12:40:51;18.50;;;8.60;;
75550;SDS011;65071;53.082;18.218;2023-01-20T12:48:34;19.30;;;8.80;;
75550;SDS011;65071;53.082;18.218;2023-01-20T13:05:19;16.50;;;8.00;;
75550;SDS011;65071;53.082;18.218;2023-01-20T13:13:24;17.10;;;8.00;;
75550;SDS011;65071;53.082;18.218;2023-01-20T13:16:14;13.80;;;7.60;;
75550;SDS011;65071;53.082;18.218;2023-01-20T13:21:45;16.90;;;8.00;;
75550;SDS011;65071;53.082;18.218;2023-01-20T13:24:16;16.80;;;8.10;;
75550;SDS011;65071;53.082;18.218;2023-01-20T13:26:49;18.70;;;8.80;;
75550;SDS011;65071;53.082;18.218;2023-01-20T13:32:02;14.30;;;7.50;;
75550;SDS011;65071;53.082;18.218;2023-01-20T13:34:49;19.80;;;9.20;;
75550;SDS011;65071;53.082;18.218;2023-01-20T13:37:26;19.70;;;10.00;;
75550;SDS011;65071;53.082;18.218;2023-01-20T13:39:55;17.30;;;9.00;;
75550;SDS011;65071;53.082;18.218;2023-01-20T13:42:26;20.30;;;9.50;;
75550;SDS011;65071;53.082;18.218;2023-01-20T13:55:57;21.00;;;9.90;;
75550;SDS011;65071;53.082;18.218;2023-01-20T13:58:33;19.00;;;8.20;;
75550;SDS011;65071;53.082;18.218;2023-01-20T14:01:01;20.40;;;9.30;;
75550;SDS011;65071;53.082;18.218;2023-01-20T14:03:33;19.90;;;9.00;;
75550;SDS011;65071;53.082;18.218;2023-01-20T14:06:02;23.30;;;10.00;;
75550;SDS011;65071;53.082;18.218;2023-01-20T14:08:38;25.70;;;11.00;;
75550;SDS011;65071;53.082;18.218;2023-01-20T14:11:13;20.30;;;10.40;;
75550;SDS011;65071;53.082;18.218;2023-01-20T14:13:59;23.70;;;10.70;;
75550;SDS011;65071;53.082;18.218;2023-01-20T14:22:01;20.90;;;10.30;;
75550;SDS011;65071;53.082;18.218;2023-01-20T14:29:45;21.30;;;10.10;;
75550;SDS011;65071;53.082;18.218;2023-01-20T14:32:33;18.20;;;8.70;;
75550;SDS011;65071;53.082;18.218;2023-01-20T14:35:03;17.90;;;8.60;;
75550;SDS011;65071;53.082;18.218;2023-01-20T14:37:53;19.30;;;9.70;;
75550;SDS011;65071;53.082;18.218;2023-01-20T14:40:21;19.00;;;8.80;;
75550;SDS011;65071;53.082;18.218;2023-01-20T14:42:57;17.20;;;7.60;;
75550;SDS011;65071;53.082;18.218;2023-01-20T14:45:41;21.10;;;9.70;;
75550;SDS011;65071;53.082;18.218;2023-01-20T14:48:10;21.70;;;10.00;;
75550;SDS011;65071;53.082;18.218;2023-01-20T14:50:38;19.40;;;9.30;;
75550;SDS011;65071;53.082;18.218;2023-01-20T14:53:05;21.00;;;9.90;;
75550;SDS011;65071;53.082;18.218;2023-01-20T14:55:33;18.50;;;8.70;;
75550;SDS011;65071;53.082;18.218;2023-01-20T15:00:43;24.60;;;9.80;;
75550;SDS011;65071;53.082;18.218;2023-01-20T15:03:13;17.00;;;8.50;;
75550;SDS011;65071;53.082;18.218;2023-01-20T15:05:57;20.00;;;9.60;;
75550;SDS011;65071;53.082;18.218;2023-01-20T15:16:29;19.90;;;9.70;;
75550;SDS011;65071;53.082;18.218;2023-01-20T15:21:40;26.70;;;11.50;;
75550;SDS011;65071;53.082;18.218;2023-01-20T15:24:16;30.00;;;12.90;;
75550;SDS011;65071;53.082;18.218;2023-01-20T15:26:43;26.80;;;9.80;;
75550;SDS011;65071;53.082;18.218;2023-01-20T15:29:27;25.50;;;9.40;;
75550;SDS011;65071;53.082;18.218;2023-01-20T15:31:56;30.60;;;11.70;;
75550;SDS011;65071;53.082;18.218;2023-01-20T15:34:24;29.10;;;11.00;;
75550;SDS011;65071;53.082;18.218;2023-01-20T15:36:53;30.30;;;12.70;;
75550;SDS011;65071;53.082;18.218;2023-01-20T15:39:25;34.60;;;13.40;;
75550;SDS011;65071;53.082;18.218;2023-01-20T15:41:56;38.80;;;14.90;;
75550;SDS011;65071;53.082;18.218;2023-01-20T15:44:24;33.30;;;14.00;;
75550;SDS011;65071;53.082;18.218;2023-01-20T15:46:52;41.70;;;14.20;;
75550;SDS011;65071;53.082;18.218;2023-01-20T15:49:19;34.50;;;13.20;;
75550;SDS011;65071;53.082;18.218;2023-01-20T15:51:46;39.10;;;14.60;;
75550;SDS011;65071;53.082;18.218;2023-01-20T15:54:12;32.30;;;13.20;;
75550;SDS011;65071;53.082;18.218;2023-01-20T15:56:40;37.30;;;13.50;;
75550;SDS011;65071;53.082;18.218;2023-01-20T15:59:12;37.20;;;14.10;;
75550;SDS011;65071;53.082;18.218;2023-01-20T16:01:41;41.40;;;15.50;;
75550;SDS011;65071;53.082;18.218;2023-01-20T16:04:08;47.10;;;17.50;;
75550;SDS011;65071;53.082;18.218;2023-01-20T16:06:35;48.10;;;18.60;;
75550;SDS011;65071;53.082;18.218;2023-01-20T16:09:08;45.20;;;16.80;;
75550;SDS011;65071;53.082;18.218;2023-01-20T16:11:49;46.40;;;18.10;;
75550;SDS011;65071;53.082;18.218;2023-01-20T16:14:16;40.40;;;15.40;;
75550;SDS011;65071;53.082;18.218;2023-01-20T16:16:42;42.60;;;15.90;;
75550;SDS011;65071;53.082;18.218;2023-01-20T16:19:11;37.80;;;14.90;;
75550;SDS011;65071;53.082;18.218;2023-01-20T16:21:38;41.00;;;17.30;;
75550;SDS011;65071;53.082;18.218;2023-01-20T16:24:05;40.40;;;15.20;;
75550;SDS011;65071;53.082;18.218;2023-01-20T16:26:33;35.20;;;14.60;;
75550;SDS011;65071;53.082;18.218;2023-01-20T16:29:00;43.80;;;16.40;;
75550;SDS011;65071;53.082;18.218;2023-01-20T16:31:27;42.00;;;17.20;;
75550;SDS011;65071;53.082;18.218;2023-01-20T16:33:54;42.90;;;16.50;;
75550;SDS011;65071;53.082;18.218;2023-01-20T16:36:21;42.40;;;16.50;;
75550;SDS011;65071;53.082;18.218;2023-01-20T16:38:49;40.10;;;15.20;;
75550;SDS011;65071;53.082;18.218;2023-01-20T16:41:23;31.60;;;10.80;;
75550;SDS011;65071;53.082;18.218;2023-01-20T16:43:52;33.70;;;13.20;;
75550;SDS011;65071;53.082;18.218;2023-01-20T16:46:21;33.60;;;13.20;;